Time;durP1;ratioP1;P1;durP2;ratioP2;P2;SDS_P1;SDS_P2;PMS_P1;PMS_P2;Temp;Humidity;BMP_temperature;BMP_pressure;BME280_temperature;BME280_humidity;BME280_pressure;Samples;Min_cycle;Max_cycle;Signal;HPM_P1;HPM_P2
2021/12/01 00:02:02;;;;;;;;;6.00;6.00;;;;;10.15;68.87;100575.66;5035727;28;45567;-71
2021/12/01 00:04:27;;;;;;;;;2.67;2.67;;;;;10.24;69.02;100572.19;5034677;28;45396;-71
2021/12/01 00:06:53;;;;;;;;;7.33;3.00;;;;;10.30;69.12;100584.88;5039685;28;45380;-71
2021/12/01 00:09:18;;;;;;;;;8.67;7.00;;;;;10.28;68.76;100571.72;5054574;28;47471;-69
2021/12/01 00:11:43;;;;;;;;;8.33;7.67;;;;;10.37;68.45;100588.59;5038183;28;45419;-72
2021/12/01 00:14:09;;;;;;;;;7.67;7.00;;;;;10.40;68.37;100577.69;5039404;28;45404;-73
2021/12/01 00:16:34;;;;;;;;;5.00;5.00;;;;;10.35;68.88;100561.34;5055067;28;45450;-70
2021/12/01 00:19:00;;;;;;;;;8.00;7.00;;;;;10.26;68.29;100527.69;5036023;28;48595;-72
2021/12/01 00:21:25;;;;;;;;;6.00;6.00;;;;;10.43;68.80;100536.72;5037878;28;45790;-71
2021/12/01 00:23:51;;;;;;;;;9.00;7.67;;;;;10.34;68.85;100522.47;5037719;28;45282;-72
2021/12/01 00:26:16;;;;;;;;;9.00;8.00;;;;;10.42;69.03;100538.53;5039617;28;45245;-71
2021/12/01 00:28:42;;;;;;;;;8.00;8.00;;;;;10.45;69.38;100527.59;5038945;28;46666;-71
2021/12/01 00:31:07;;;;;;;;;8.33;8.33;;;;;10.44;68.83;100523.25;5039028;28;45356;-71
2021/12/01 00:33:33;;;;;;;;;8.00;6.33;;;;;10.34;69.13;100491.41;5054448;28;45270;-72
2021/12/01 00:35:59;;;;;;;;;8.00;8.00;;;;;10.41;69.19;100489.03;5039362;28;45380;-71
2021/12/01 00:38:25;;;;;;;;;7.00;7.00;;;;;10.34;69.16;100477.28;5038712;28;46542;-71
2021/12/01 00:40:51;;;;;;;;;9.00;8.67;;;;;10.41;69.07;100483.69;5038780;28;45439;-70
2021/12/01 00:43:18;;;;;;;;;7.00;6.00;;;;;9.97;69.33;100400.28;5037633;28;45327;-71
2021/12/01 00:45:54;;;;;;;;;7.00;7.00;;;;;10.28;69.28;100438.88;5037486;28;45393;-71
2021/12/01 00:48:20;;;;;;;;;7.00;7.00;;;;;8.86;69.37;100198.81;5030231;28;45605;-71
2021/12/01 00:50:46;;;;;;;;;7.00;7.00;;;;;9.80;69.57;100362.09;5033816;28;45211;-71
2021/12/01 00:53:12;;;;;;;;;7.33;7.00;;;;;10.27;69.49;100425.75;5017740;28;45446;-71
2021/12/01 00:55:40;;;;;;;;;8.00;6.00;;;;;10.13;69.95;100413.75;5019044;28;45440;-70
2021/12/01 00:58:06;;;;;;;;;9.00;8.67;;;;;10.09;69.96;100387.66;5018722;28;45987;-70
2021/12/01 01:00:32;;;;;;;;;9.33;7.00;;;;;10.12;69.88;100392.66;5017271;28;45356;-70
2021/12/01 01:03:01;;;;;;;;;5.67;5.00;;;;;10.27;69.54;100402.66;5018981;28;45395;-70
2021/12/01 01:05:27;;;;;;;;;7.00;7.00;;;;;10.26;69.39;100393.03;5034184;28;45591;-71
2021/12/01 01:07:53;;;;;;;;;6.33;5.33;;;;;10.27;69.20;100400.00;5018195;28;45673;-70
2021/12/01 01:18:23;;;;;;;;;5.00;5.00;;;;;10.36;68.98;100396.44;5017299;28;45790;-70
2021/12/01 01:20:48;;;;;;;;;4.33;4.33;;;;;10.27;69.19;100354.00;5018072;28;45465;-70
2021/12/01 01:23:17;;;;;;;;;6.67;6.67;;;;;10.39;69.41;100370.53;5017260;28;45243;-70
2021/12/01 01:25:43;;;;;;;;;7.00;7.00;;;;;10.22;69.49;100340.34;5037090;28;45352;-71
2021/12/01 01:28:08;;;;;;;;;7.33;5.33;;;;;10.34;69.46;100371.84;5037984;28;45521;-71
2021/12/01 01:30:37;;;;;;;;;3.00;3.00;;;;;10.23;69.64;100339.38;5036758;28;45447;-71
2021/12/01 01:33:02;;;;;;;;;7.67;5.67;;;;;10.12;69.88;100324.44;5020113;28;45476;-71
2021/12/01 01:35:28;;;;;;;;;7.00;6.00;;;;;10.29;69.94;100352.03;5038036;28;45628;-70
2021/12/01 01:37:53;;;;;;;;;9.00;9.00;;;;;10.03;70.05;100320.88;5037719;28;46038;-71
2021/12/01 01:40:21;;;;;;;;;7.00;7.00;;;;;10.22;70.10;100346.50;5038234;28;45559;-70
2021/12/01 01:42:48;;;;;;;;;6.67;6.67;;;;;10.23;69.85;100339.38;5038033;28;45282;-70
2021/12/01 01:45:14;;;;;;;;;7.00;6.67;;;;;10.32;70.11;100352.56;5037966;28;45529;-70
2021/12/01 01:48:03;;;;;;;;;12.00;11.00;;;;;9.65;69.79;100230.88;5041651;28;46172;-71
2021/12/01 01:50:37;;;;;;;;;9.33;8.33;;;;;8.20;69.79;99991.28;5057713;28;45659;-71
2021/12/01 01:53:06;;;;;;;;;8.33;8.33;;;;;10.25;70.37;100319.63;5057884;28;45431;-70
2021/12/01 01:55:47;;;;;;;;;8.00;7.00;;;;;10.29;69.85;100328.13;5058019;28;45423;-71
2021/12/01 01:58:14;;;;;;;;;9.00;7.67;;;;;10.22;69.71;100308.47;5039339;28;47584;-72
2021/12/01 02:00:52;;;;;;;;;9.67;8.00;;;;;10.30;69.52;100308.53;5039430;28;45282;-70
2021/12/01 02:03:20;;;;;;;;;8.00;7.00;;;;;10.42;69.35;100335.72;5057613;28;45428;-70
2021/12/01 02:05:47;;;;;;;;;8.67;8.67;;;;;10.16;69.64;100293.91;5039684;28;45503;-70
2021/12/01 02:08:18;;;;;;;;;8.33;8.33;;;;;10.44;69.69;100328.44;5055952;28;46640;-70
2021/12/01 02:10:46;;;;;;;;;10.33;9.67;;;;;10.40;69.65;100325.22;5057449;28;45320;-69
2021/12/01 02:13:12;;;;;;;;;10.00;9.00;;;;;10.25;70.49;100300.19;5056431;28;45275;-73
2021/12/01 02:15:48;;;;;;;;;11.00;11.00;;;;;9.28;69.93;100128.34;5039403;28;45466;-71
2021/12/01 02:18:14;;;;;;;;;7.67;7.67;;;;;10.22;70.54;100276.59;5029450;28;46812;-70
2021/12/01 02:20:40;;;;;;;;;7.67;7.67;;;;;10.36;70.35;100303.44;5039717;28;45455;-70
2021/12/01 02:23:06;;;;;;;;;7.00;7.00;;;;;10.40;70.99;100295.97;5057509;28;45489;-71
2021/12/01 02:25:32;;;;;;;;;9.33;8.00;;;;;10.29;70.95;100267.84;5057098;28;45336;-70
2021/12/01 02:27:57;;;;;;;;;8.33;8.33;;;;;10.36;70.87;100276.03;5056836;28;46634;-70
2021/12/01 02:30:23;;;;;;;;;10.00;9.00;;;;;9.82;71.88;100190.22;5057083;28;45400;-70
2021/12/01 02:32:52;;;;;;;;;9.00;7.00;;;;;10.31;72.01;100275.66;5055326;28;45519;-70
2021/12/01 02:35:17;;;;;;;;;9.33;8.33;;;;;9.86;71.86;100180.13;5057313;28;45541;-72
2021/12/01 02:37:43;;;;;;;;;8.00;8.00;;;;;10.11;72.60;100227.16;5056980;28;46773;-70
2021/12/01 02:40:09;;;;;;;;;13.33;11.00;;;;;10.25;72.98;100252.38;5057204;28;45265;-70
2021/12/01 02:42:34;;;;;;;;;10.33;9.00;;;;;10.13;72.98;100229.66;5056899;28;45491;-70
2021/12/01 02:45:00;;;;;;;;;13.33;13.33;;;;;10.00;72.70;100199.00;5057245;28;45150;-71
2021/12/01 02:47:26;;;;;;;;;9.67;9.67;;;;;10.19;72.95;100231.69;5053385;28;48507;-71
2021/12/01 02:49:54;;;;;;;;;12.00;9.33;;;;;9.13;73.20;100040.50;5018773;28;46346;-72
2021/12/01 02:52:20;;;;;;;;;10.00;10.00;;;;;10.33;72.34;100221.38;5036854;28;45385;-70
2021/12/01 02:54:45;;;;;;;;;9.33;9.00;;;;;9.84;72.82;100129.84;5019273;28;45567;-70
2021/12/01 02:57:12;;;;;;;;;10.00;10.00;;;;;10.23;72.58;100178.13;5035241;28;48567;-69
2021/12/01 02:59:38;;;;;;;;;10.00;8.33;;;;;9.93;72.19;100115.63;5036731;28;45223;-71
2021/12/01 03:02:04;;;;;;;;;9.00;8.00;;;;;10.20;72.53;100151.00;5036542;28;45301;-70
2021/12/01 03:04:30;;;;;;;;;8.33;6.00;;;;;10.34;72.33;100167.25;5018797;28;45250;-69
2021/12/01 03:06:57;;;;;;;;;9.67;8.33;;;;;10.31;73.00;100164.91;5018121;28;47459;-70
2021/12/01 03:09:22;;;;;;;;;8.67;8.67;;;;;10.20;72.76;100121.78;5036410;28;45290;-69
2021/12/01 03:11:49;;;;;;;;;7.33;7.00;;;;;10.27;73.04;100130.84;5036780;28;45266;-70
2021/12/01 03:14:17;;;;;;;;;5.00;5.00;;;;;10.29;72.52;100119.06;5036697;28;45408;-70
2021/12/01 03:16:44;;;;;;;;;6.67;6.67;;;;;10.25;72.92;100112.41;5036187;28;48928;-70
2021/12/01 03:19:12;;;;;;;;;6.00;4.67;;;;;10.13;73.54;100091.53;5050452;28;45534;-70
2021/12/01 03:21:39;;;;;;;;;3.00;3.00;;;;;10.25;73.06;100108.91;5056583;28;45360;-70
2021/12/01 03:24:05;;;;;;;;;5.00;5.00;;;;;10.25;72.89;100103.59;5056340;28;45384;-70
2021/12/01 03:26:31;;;;;;;;;3.00;3.00;;;;;10.19;73.11;100097.03;5056234;28;46459;-69
2021/12/01 03:28:57;;;;;;;;;2.00;2.00;;;;;10.24;73.32;100093.97;5056312;28;45447;-70
2021/12/01 03:31:23;;;;;;;;;4.00;3.67;;;;;10.25;72.98;100096.47;5056660;28;45315;-70
2021/12/01 03:33:49;;;;;;;;;3.67;3.67;;;;;10.22;73.21;100082.66;5055000;28;45221;-69
2021/12/01 03:36:14;;;;;;;;;4.00;4.00;;;;;9.66;73.22;99969.78;5056384;28;46436;-69
2021/12/01 03:38:40;;;;;;;;;3.00;3.00;;;;;10.06;73.35;100033.72;5056111;28;45325;-69
2021/12/01 03:41:05;;;;;;;;;3.67;3.67;;;;;10.27;73.50;100065.25;5040373;28;45330;-71
2021/12/01 03:43:31;;;;;;;;;3.00;3.00;;;;;10.14;73.35;100035.59;5059969;28;45470;-68
2021/12/01 03:45:56;;;;;;;;;3.67;3.00;;;;;10.20;73.67;100028.81;5059604;28;46114;-71
2021/12/01 03:48:23;;;;;;;;;2.00;2.00;;;;;10.18;74.19;99998.91;5032633;28;45500;-71
2021/12/01 03:50:50;;;;;;;;;2.00;2.00;;;;;10.13;74.29;100002.06;5039610;28;45329;-70
2021/12/01 03:53:18;;;;;;;;;2.67;2.33;;;;;9.69;74.41;99919.03;5039821;28;45216;-70
2021/12/01 03:55:43;;;;;;;;;1.00;1.00;;;;;10.17;74.74;99987.47;5021273;28;47649;-71
2021/12/01 03:58:09;;;;;;;;;6.33;3.00;;;;;10.16;74.80;99985.78;5039196;28;45483;-70
2021/12/01 04:00:35;;;;;;;;;5.00;5.00;;;;;10.14;74.98;99979.81;5039707;28;45302;-70
2021/12/01 04:03:00;;;;;;;;;5.33;4.67;;;;;10.20;75.12;99981.00;5039374;28;45325;-69
2021/12/01 04:05:26;;;;;;;;;3.00;3.00;;;;;10.23;75.82;99986.03;5039349;28;45639;-71
2021/12/01 04:07:51;;;;;;;;;3.00;3.00;;;;;10.26;75.81;99983.06;5039258;28;45907;-70
2021/12/01 04:10:18;;;;;;;;;3.33;3.33;;;;;10.11;76.59;99960.72;5039302;28;45341;-69
2021/12/01 04:12:43;;;;;;;;;7.00;7.00;;;;;10.11;76.89;99958.88;5039467;28;45309;-71
2021/12/01 04:15:10;;;;;;;;;6.67;6.67;;;;;10.05;77.45;99936.47;5039044;28;45975;-70
2021/12/01 04:17:36;;;;;;;;;5.00;5.00;;;;;9.90;77.46;99900.88;5043786;28;45501;-71
2021/12/01 04:20:03;;;;;;;;;7.00;6.00;;;;;10.05;77.63;99899.28;5057629;28;45393;-70
2021/12/01 04:22:28;;;;;;;;;7.00;5.33;;;;;9.91;77.91;99876.00;5059282;28;45242;-71
2021/12/01 04:24:53;;;;;;;;;7.67;6.33;;;;;9.85;78.46;99881.97;5058683;28;45629;-71
2021/12/01 04:27:19;;;;;;;;;3.67;3.00;;;;;9.82;78.42;99873.50;5058961;28;45322;-69
2021/12/01 04:29:44;;;;;;;;;6.67;6.00;;;;;9.83;78.36;99864.53;5058947;28;45306;-70
2021/12/01 04:32:09;;;;;;;;;6.33;6.33;;;;;9.92;79.03;99885.63;5059494;28;45380;-71
2021/12/01 04:34:36;;;;;;;;;7.00;7.00;;;;;8.16;78.78;99605.19;5058948;28;45498;-70
2021/12/01 04:37:02;;;;;;;;;8.00;8.00;;;;;9.73;79.40;99862.81;5059252;28;45468;-71
2021/12/01 04:39:28;;;;;;;;;5.00;5.00;;;;;9.87;79.24;99884.44;5059143;28;45522;-70
2021/12/01 04:41:57;;;;;;;;;8.33;6.67;;;;;9.82;79.05;99865.53;5059033;28;45838;-69
2021/12/01 04:44:26;;;;;;;;;6.33;6.33;;;;;9.89;78.78;99856.75;5057326;28;47626;-70
2021/12/01 04:46:56;;;;;;;;;4.33;4.33;;;;;9.90;79.58;99868.19;5058816;28;45452;-69
2021/12/01 04:49:23;;;;;;;;;5.33;5.33;;;;;9.40;78.98;99774.28;5037256;28;45439;-71
2021/12/01 04:51:51;;;;;;;;;4.00;4.00;;;;;9.88;78.76;99852.44;5037205;28;45563;-71
2021/12/01 04:54:20;;;;;;;;;4.00;4.00;;;;;9.71;79.69;99821.50;5037093;28;48421;-70
2021/12/01 04:56:46;;;;;;;;;4.00;4.00;;;;;9.83;79.20;99841.47;5038296;28;45417;-71
2021/12/01 04:59:13;;;;;;;;;3.00;3.00;;;;;9.79;79.44;99828.66;5038443;28;45335;-70
2021/12/01 05:01:40;;;;;;;;;2.33;2.33;;;;;9.76;79.29;99809.41;5037059;28;45668;-70
2021/12/01 05:04:06;;;;;;;;;3.67;3.67;;;;;9.75;79.25;99801.59;5036712;28;47539;-71
2021/12/01 05:06:31;;;;;;;;;3.00;3.00;;;;;9.87;79.17;99808.28;5036883;28;45430;-70
2021/12/01 05:08:57;;;;;;;;;2.33;2.33;;;;;9.67;79.20;99781.19;5036855;28;45569;-69
2021/12/01 05:11:22;;;;;;;;;3.00;3.00;;;;;9.67;79.29;99769.75;5020319;28;45364;-71
2021/12/01 05:13:48;;;;;;;;;3.00;3.00;;;;;9.68;79.34;99752.84;5019970;28;47041;-69
2021/12/01 05:16:13;;;;;;;;;1.67;1.67;;;;;9.90;79.23;99784.06;5037846;28;45361;-72
2021/12/01 05:18:39;;;;;;;;;3.00;2.00;;;;;9.75;79.32;99759.13;5035828;28;45465;-69
2021/12/01 05:21:04;;;;;;;;;2.00;2.00;;;;;9.57;79.74;99740.69;5058749;28;45372;-71
2021/12/01 05:23:30;;;;;;;;;1.67;1.67;;;;;9.88;80.00;99775.44;5039846;28;47631;-70
2021/12/01 05:25:55;;;;;;;;;1.00;1.00;;;;;9.68;80.00;99748.34;5057998;28;45471;-70
2021/12/01 05:28:22;;;;;;;;;1.00;1.00;;;;;9.73;79.69;99750.50;5057907;28;45814;-70
2021/12/01 05:30:48;;;;;;;;;1.00;1.00;;;;;9.82;80.14;99754.84;5057277;28;45388;-70
2021/12/01 05:33:15;;;;;;;;;1.00;1.00;;;;;9.83;79.87;99756.53;5058075;28;46065;-70
2021/12/01 05:35:42;;;;;;;;;2.00;2.00;;;;;9.82;80.26;99754.84;5057852;28;45321;-70
2021/12/01 05:38:08;;;;;;;;;1.00;0.00;;;;;8.76;79.81;99587.47;5056401;28;45455;-70
2021/12/01 05:40:34;;;;;;;;;0.00;0.00;;;;;9.62;80.13;99737.56;5057909;28;45507;-70
2021/12/01 05:43:00;;;;;;;;;1.33;1.33;;;;;9.72;79.84;99732.94;5057892;28;46610;-70
2021/12/01 05:45:25;;;;;;;;;1.00;1.00;;;;;9.74;79.79;99729.13;5056942;28;46033;-71
2021/12/01 05:47:51;;;;;;;;;1.00;1.00;;;;;9.64;79.37;99714.34;5048493;28;45492;-70
2021/12/01 05:50:17;;;;;;;;;0.00;0.00;;;;;9.71;80.23;99716.16;5038053;28;45296;-69
2021/12/01 05:52:43;;;;;;;;;1.00;1.00;;;;;9.38;79.74;99658.72;5037608;28;47080;-70
2021/12/01 05:55:09;;;;;;;;;1.00;1.00;;;;;9.83;80.00;99729.16;5037258;28;45171;-71
2021/12/01 05:57:35;;;;;;;;;0.00;0.00;;;;;9.81;79.99;99734.63;5037821;28;45481;-71
2021/12/01 06:00:01;;;;;;;;;0.00;0.00;;;;;9.22;80.22;99618.94;5036535;28;45302;-72
2021/12/01 06:02:27;;;;;;;;;0.00;0.00;;;;;9.81;79.94;99708.06;5036801;28;45634;-71
2021/12/01 06:04:53;;;;;;;;;0.00;0.00;;;;;9.82;80.14;99711.56;5037807;28;45559;-71
2021/12/01 06:07:19;;;;;;;;;0.00;0.00;;;;;9.84;80.58;99699.78;5019843;28;45484;-71
2021/12/01 06:09:44;;;;;;;;;0.00;0.00;;;;;9.45;80.11;99634.06;5036314;28;45273;-71
2021/12/01 06:12:14;;;;;;;;;0.67;0.67;;;;;9.84;80.52;99685.69;5037020;28;46102;-70
2021/12/01 06:14:46;;;;;;;;;0.00;0.00;;;;;9.73;80.37;99666.41;5035920;28;45473;-70
2021/12/01 06:17:14;;;;;;;;;0.00;0.00;;;;;9.71;80.47;99644.50;5019045;28;45270;-71
2021/12/01 06:19:40;;;;;;;;;1.00;1.00;;;;;9.91;80.95;99684.00;5037253;28;45593;-71
2021/12/01 06:22:06;;;;;;;;;1.00;1.00;;;;;9.84;80.67;99673.22;5019071;28;48572;-70
2021/12/01 06:24:32;;;;;;;;;0.00;0.00;;;;;9.83;80.41;99670.75;5018922;28;45477;-72
2021/12/01 06:26:58;;;;;;;;;1.00;1.00;;;;;10.02;80.16;99665.94;5037666;28;45333;-71
2021/12/01 06:29:24;;;;;;;;;1.33;1.33;;;;;10.06;80.09;99661.09;5019504;28;45515;-71
2021/12/01 06:31:49;;;;;;;;;1.00;1.00;;;;;9.93;80.06;99629.75;5037188;28;45499;-72
2021/12/01 06:34:14;;;;;;;;;0.00;0.00;;;;;10.07;80.61;99642.34;5035470;28;45844;-70
2021/12/01 06:36:40;;;;;;;;;2.00;1.00;;;;;10.06;80.90;99639.88;5037408;28;45360;-70
2021/12/01 06:39:07;;;;;;;;;0.00;0.00;;;;;10.07;80.95;99638.88;5038956;28;45456;-74
2021/12/01 06:41:32;;;;;;;;;1.00;1.00;;;;;10.10;81.33;99643.00;5036478;28;47707;-69
2021/12/01 06:43:59;;;;;;;;;0.00;0.00;;;;;10.06;81.13;99629.25;5036630;28;45235;-70
2021/12/01 06:46:24;;;;;;;;;0.00;0.00;;;;;10.10;81.35;99622.59;5018848;28;45345;-70
2021/12/01 06:48:51;;;;;;;;;1.00;1.00;;;;;9.69;80.86;99550.13;5036511;28;45345;-72
2021/12/01 06:51:16;;;;;;;;;0.00;0.00;;;;;9.96;80.64;99597.53;5054688;28;45717;-70
2021/12/01 06:53:42;;;;;;;;;1.67;1.67;;;;;10.23;80.67;99624.78;5056422;28;45380;-74
2021/12/01 06:56:09;;;;;;;;;2.33;1.00;;;;;10.16;80.96;99613.94;5054769;28;45500;-72
2021/12/01 06:58:35;;;;;;;;;0.00;0.00;;;;;10.16;81.07;99608.63;5057105;28;46009;-70
2021/12/01 07:01:04;;;;;;;;;1.00;1.00;;;;;10.27;80.88;99626.91;5055522;28;45685;-71
2021/12/01 07:03:30;;;;;;;;;0.00;0.00;;;;;10.22;81.10;99615.97;5044136;28;45679;-69
2021/12/01 07:05:55;;;;;;;;;0.00;0.00;;;;;10.24;81.20;99608.66;5053998;28;45235;-70
2021/12/01 07:08:20;;;;;;;;;1.00;0.00;;;;;10.40;80.60;99617.56;5055379;28;45299;-73
2021/12/01 07:10:46;;;;;;;;;0.00;0.00;;;;;10.41;80.63;99622.75;5056427;28;45984;-70
2021/12/01 07:13:12;;;;;;;;;0.00;0.00;;;;;10.30;81.07;99604.50;5056564;28;45506;-71
2021/12/01 07:15:37;;;;;;;;;0.00;0.00;;;;;10.32;81.01;99595.34;5042422;28;45424;-71
2021/12/01 07:18:02;;;;;;;;;0.00;0.00;;;;;10.10;80.91;99555.38;5021945;28;45575;-71
2021/12/01 07:20:28;;;;;;;;;0.00;0.00;;;;;10.43;80.90;99609.28;5039678;28;45369;-73
2021/12/01 07:22:53;;;;;;;;;0.00;0.00;;;;;10.22;81.23;99564.69;5021577;28;45347;-71
2021/12/01 07:25:19;;;;;;;;;0.00;0.00;;;;;10.49;80.77;99604.09;5045226;28;45476;-71
2021/12/01 07:27:44;;;;;;;;;1.00;1.00;;;;;10.46;80.62;99588.50;5057183;28;45438;-70
2021/12/01 07:30:10;;;;;;;;;0.00;0.00;;;;;10.56;80.97;99602.41;5045624;28;45606;-71
2021/12/01 07:32:36;;;;;;;;;1.67;1.67;;;;;10.60;80.59;99602.88;5021965;28;45547;-72
2021/12/01 07:35:01;;;;;;;;;0.00;0.00;;;;;10.51;80.50;99588.81;5042450;28;45548;-71
2021/12/01 07:37:26;;;;;;;;;0.00;0.00;;;;;10.75;80.17;99613.63;5039337;28;45570;-72
2021/12/01 07:39:52;;;;;;;;;0.00;0.00;;;;;10.68;79.55;99596.72;5039717;28;45611;-73
2021/12/01 07:42:18;;;;;;;;;0.00;0.00;;;;;10.84;79.70;99607.31;5024138;28;45696;-72
2021/12/01 07:44:43;;;;;;;;;6.33;3.67;;;;;10.87;78.92;99618.41;5039030;28;45445;-73
2021/12/01 07:47:09;;;;;;;;;0.00;0.00;;;;;10.55;79.20;99560.88;5039881;28;45570;-71
2021/12/01 07:49:35;;;;;;;;;0.00;0.00;;;;;10.83;79.03;99608.31;5041439;28;45560;-74
2021/12/01 07:52:03;;;;;;;;;0.00;0.00;;;;;10.88;79.12;99605.94;5046139;28;45274;-72
2021/12/01 07:54:29;;;;;;;;;2.67;1.67;;;;;11.00;78.73;99598.38;5056795;28;45465;-72
2021/12/01 07:56:55;;;;;;;;;0.00;0.00;;;;;11.08;78.41;99624.97;5041819;28;45488;-74
2021/12/01 07:59:20;;;;;;;;;0.00;0.00;;;;;11.08;78.13;99609.81;5039580;28;46258;-73
2021/12/01 08:01:46;;;;;;;;;0.00;0.00;;;;;11.10;79.07;99599.84;5021689;28;45491;-71
2021/12/01 08:04:12;;;;;;;;;2.00;2.00;;;;;11.24;78.17;99615.06;5039777;28;45228;-72
2021/12/01 08:06:43;;;;;;;;;1.67;1.67;;;;;10.84;77.98;99532.84;5023506;28;45279;-71
2021/12/01 08:09:10;;;;;;;;;0.00;0.00;;;;;11.23;78.12;99600.09;5021718;28;47144;-73
2021/12/01 08:11:36;;;;;;;;;1.00;1.00;;;;;11.30;77.69;99597.56;5043348;28;45388;-72
2021/12/01 08:14:01;;;;;;;;;0.00;0.00;;;;;11.37;77.93;99597.66;5038139;28;45341;-72
2021/12/01 08:16:27;;;;;;;;;3.67;3.67;;;;;11.20;77.49;99571.16;5054400;28;45373;-72
2021/12/01 08:18:55;;;;;;;;;2.00;0.00;;;;;11.32;77.23;99581.41;5048502;28;45670;-73
2021/12/01 08:21:24;;;;;;;;;0.00;0.00;;;;;11.20;77.72;99555.19;5040479;28;45778;-72
2021/12/01 08:23:52;;;;;;;;;0.00;0.00;;;;;11.42;77.00;99600.66;5059380;28;45400;-71
2021/12/01 08:26:18;;;;;;;;;1.00;1.00;;;;;11.48;77.30;99589.28;5049143;28;45408;-71
2021/12/01 08:28:45;;;;;;;;;0.00;0.00;;;;;11.49;76.72;99581.13;5056100;28;45305;-72
2021/12/01 08:31:13;;;;;;;;;1.00;0.00;;;;;11.47;76.44;99582.31;5046603;28;45844;-73
2021/12/01 08:33:39;;;;;;;;;0.33;0.33;;;;;11.38;76.42;99567.38;5021341;28;45374;-72
2021/12/01 08:36:04;;;;;;;;;0.00;0.00;;;;;11.43;76.78;99549.06;5039476;28;45405;-72
2021/12/01 08:38:29;;;;;;;;;1.00;1.00;;;;;11.59;75.79;99579.03;5027534;28;47085;-72
2021/12/01 08:40:55;;;;;;;;;0.00;0.00;;;;;11.49;75.74;99541.19;5040323;28;45467;-72
2021/12/01 08:43:20;;;;;;;;;2.00;2.00;;;;;11.25;75.83;99493.50;5024289;28;45730;-72
2021/12/01 08:45:46;;;;;;;;;0.00;0.00;;;;;11.82;74.96;99562.25;5059692;28;45539;-71
2021/12/01 08:48:12;;;;;;;;;1.00;1.00;;;;;12.12;74.67;99597.72;5038240;28;45738;-74
2021/12/01 08:50:38;;;;;;;;;0.00;0.00;;;;;12.11;73.77;99567.59;5049960;28;45464;-73
2021/12/01 08:53:04;;;;;;;;;0.00;0.00;;;;;12.29;73.86;99577.06;5025515;28;45838;-73
2021/12/01 08:55:29;;;;;;;;;1.33;1.00;;;;;12.31;72.98;99586.53;5046527;28;45598;-73
2021/12/01 08:57:55;;;;;;;;;1.67;0.33;;;;;11.78;72.68;99500.50;5020294;28;45184;-72
2021/12/01 09:00:21;;;;;;;;;0.00;0.00;;;;;11.99;72.96;99517.59;5043316;28;45319;-72
2021/12/01 09:02:47;;;;;;;;;1.67;1.67;;;;;12.34;72.99;99575.50;5037848;28;45525;-72
2021/12/01 09:05:16;;;;;;;;;2.67;0.00;;;;;11.02;72.52;99336.59;5037537;28;45411;-72
2021/12/01 09:07:47;;;;;;;;;0.00;0.00;;;;;12.48;71.72;99550.69;5037567;28;48506;-74
2021/12/01 09:10:12;;;;;;;;;1.00;1.00;;;;;12.82;71.63;99583.13;5037732;28;45367;-72
2021/12/01 09:12:38;;;;;;;;;0.00;0.00;;;;;12.91;70.37;99577.47;5050125;28;45605;-74
2021/12/01 09:15:10;;;;;;;;;1.33;1.33;;;;;12.55;70.16;99508.13;5049328;28;45316;-73
2021/12/01 09:17:36;;;;;;;;;1.67;1.00;;;;;12.65;68.92;99510.50;5042760;28;45763;-73
2021/12/01 09:20:03;;;;;;;;;1.67;1.00;;;;;13.19;69.16;99585.59;5034759;28;46196;-74
2021/12/01 09:22:29;;;;;;;;;1.00;1.00;;;;;13.34;68.16;99580.22;5038344;28;45534;-74
2021/12/01 09:24:54;;;;;;;;;2.00;2.00;;;;;13.41;67.69;99586.44;5042843;28;45486;-73
2021/12/01 09:27:23;;;;;;;;;2.00;2.00;;;;;12.24;67.34;99395.63;5043377;28;46456;-72
2021/12/01 09:29:51;;;;;;;;;0.00;0.00;;;;;12.89;66.70;99494.16;5044130;28;45546;-73
2021/12/01 09:32:20;;;;;;;;;0.00;0.00;;;;;13.29;66.13;99580.81;5055046;28;45584;-72
2021/12/01 09:34:49;;;;;;;;;3.00;2.00;;;;;13.26;65.83;99575.84;5023126;28;45599;-73
2021/12/01 09:37:16;;;;;;;;;2.00;0.00;;;;;12.98;66.13;99557.03;5034976;28;47951;-73
2021/12/01 09:39:48;;;;;;;;;0.00;0.00;;;;;13.10;66.35;99587.53;5030680;28;45297;-71
2021/12/01 09:42:16;;;;;;;;;0.00;0.00;;;;;12.23;66.12;99445.41;5034037;28;45654;-70
2021/12/01 09:44:45;;;;;;;;;1.67;1.67;;;;;12.98;65.34;99575.69;5047256;28;46645;-71
2021/12/01 09:47:13;;;;;;;;;1.00;1.00;;;;;12.86;65.07;99563.88;5019972;28;47711;-72
2021/12/01 09:49:38;;;;;;;;;1.00;1.00;;;;;12.95;65.36;99586.75;5020512;28;45731;-72
2021/12/01 09:52:04;;;;;;;;;1.00;1.00;;;;;12.85;65.11;99556.91;5037472;28;45321;-71
2021/12/01 09:54:30;;;;;;;;;1.00;1.00;;;;;12.85;65.45;99567.56;5052763;28;45417;-71
2021/12/01 09:56:56;;;;;;;;;0.00;0.00;;;;;13.00;65.21;99608.34;5051523;28;47848;-73
2021/12/01 09:59:21;;;;;;;;;0.67;0.67;;;;;12.77;65.52;99564.97;5047850;28;45718;-74
2021/12/01 10:01:53;;;;;;;;;1.00;1.00;;;;;13.02;65.53;99608.19;5041301;28;45614;-74
2021/12/01 10:04:19;;;;;;;;;3.00;1.00;;;;;12.57;65.64;99534.59;5037306;28;45417;-75
2021/12/01 10:06:47;;;;;;;;;0.67;0.67;;;;;11.51;64.86;99370.66;5031573;28;47433;-71
2021/12/01 10:09:16;;;;;;;;;1.00;1.00;;;;;12.77;65.36;99575.66;5028368;28;45420;-72
2021/12/01 10:11:42;;;;;;;;;0.33;0.00;;;;;12.92;66.52;99608.47;5049366;28;45467;-73
2021/12/01 10:14:20;;;;;;;;;2.00;0.33;;;;;11.21;66.61;99353.84;5057328;28;45499;-73
2021/12/01 10:16:52;;;;;;;;;0.33;0.33;;;;;12.51;66.13;99560.16;5046218;28;45775;-71
2021/12/01 10:19:17;;;;;;;;;1.00;1.00;;;;;12.69;65.29;99597.09;5046279;28;45587;-74
2021/12/01 10:21:51;;;;;;;;;0.67;0.67;;;;;11.53;64.96;99427.19;5023223;28;45213;-70
2021/12/01 10:24:23;;;;;;;;;2.00;1.00;;;;;11.43;65.13;99421.34;5035425;28;45478;-74
2021/12/01 10:26:56;;;;;;;;;4.00;4.00;;;;;12.58;65.45;99603.72;5037093;28;46249;-73
2021/12/01 10:29:30;;;;;;;;;3.33;2.00;;;;;11.96;65.44;99488.69;5035809;28;45365;-74
2021/12/01 10:31:59;;;;;;;;;1.00;1.00;;;;;10.80;65.21;99319.66;5036228;28;45382;-74
2021/12/01 10:34:29;;;;;;;;;2.67;2.33;;;;;12.28;64.87;99570.09;5029420;28;45335;-72
2021/12/01 10:37:26;;;;;;;;;0.00;0.00;;;;;12.20;66.91;99610.97;5032948;28;47851;-73
2021/12/01 10:40:08;;;;;;;;;1.00;1.00;;;;;12.06;67.82;99625.09;5033418;28;45432;-74
2021/12/01 10:42:35;;;;;;;;;1.00;1.00;;;;;12.07;68.54;99618.78;5037388;28;45243;-74
2021/12/01 10:45:06;;;;;;;;;4.33;4.00;;;;;9.82;68.04;99250.53;5017275;28;45362;-74
2021/12/01 10:47:44;;;;;;;;;3.00;3.00;;;;;12.09;68.31;99624.75;5032328;28;47527;-74
2021/12/01 10:50:15;;;;;;;;;6.00;2.00;;;;;10.86;68.05;99421.84;5032036;28;45383;-73
2021/12/01 10:52:49;;;;;;;;;4.00;2.00;;;;;10.41;67.60;99330.47;5032124;28;45373;-74
2021/12/01 10:55:22;;;;;;;;;2.00;2.00;;;;;11.48;67.31;99496.13;5048713;28;45642;-74
2021/12/01 10:57:58;;;;;;;;;1.67;1.67;;;;;11.52;67.54;99492.09;5035171;28;48525;-74
2021/12/01 11:00:49;;;;;;;;;2.00;1.00;;;;;11.70;67.12;99505.06;5052265;28;45506;-75
2021/12/01 11:03:30;;;;;;;;;2.00;2.00;;;;;12.43;66.66;99602.91;5036986;28;45514;-75
2021/12/01 11:06:09;;;;;;;;;1.33;1.00;;;;;12.48;67.54;99597.84;5035512;28;45573;-80
2021/12/01 11:08:45;;;;;;;;;2.33;2.33;;;;;11.44;66.02;99425.66;5026850;28;47420;-75
2021/12/01 11:11:20;;;;;;;;;6.00;4.00;;;;;10.74;66.18;99277.88;5033426;28;45419;-77
2021/12/01 11:14:16;;;;;;;;;3.00;3.00;;;;;12.22;66.46;99513.03;5031193;28;45238;-77
2021/12/01 11:16:49;;;;;;;;;1.00;1.00;;;;;12.14;65.16;99499.78;5030589;28;45635;-77
2021/12/01 11:19:39;;;;;;;;;0.67;0.67;;;;;12.83;64.80;99598.09;5019975;28;48071;-77
2021/12/01 11:22:44;;;;;;;;;;;;;;;;;;;;;
2021/12/01 11:25:38;;;;;;;;;;;;;;;;;;;;;
2021/12/01 11:28:15;;;;;;;;;2.67;2.67;;;;;12.58;64.11;99586.91;5039932;28;63062;-79
2021/12/01 11:30:48;;;;;;;;;3.00;3.00;;;;;10.65;64.56;99263.84;5033878;28;46322;-78
2021/12/01 11:33:17;;;;;;;;;8.33;7.00;;;;;10.82;64.10;99296.41;5039866;28;45710;-77
2021/12/01 11:35:54;;;;;;;;;4.00;3.00;;;;;11.92;64.22;99495.38;5039952;28;45631;-78
2021/12/01 11:38:28;;;;;;;;;2.33;2.00;;;;;11.30;64.32;99390.03;5039372;28;45467;-78
2021/12/01 11:40:59;;;;;;;;;6.00;5.00;;;;;12.43;64.76;99570.94;5040297;28;45998;-77
2021/12/01 11:43:34;;;;;;;;;5.00;2.00;;;;;12.52;64.95;99590.31;5036122;28;45506;-77
2021/12/01 11:46:04;;;;;;;;;3.33;2.00;;;;;10.49;64.01;99266.63;5034372;28;45504;-75